Time;durP1;ratioP1;P1;durP2;ratioP2;P2;SDS_P1;SDS_P2;PMS_P1;PMS_P2;Temp;Humidity;BMP_temperature;BMP_pressure;BME280_temperature;BME280_humidity;BME280_pressure;Samples;Min_cycle;Max_cycle;Signal;HPM_P1;HPM_P2
2024/01/16 00:01:16;;;;;;;7.25;1.20;;;1.10;99.90;;;;;;5094902;28;20044;-79
2024/01/16 00:03:42;;;;;;;9.63;1.20;;;1.10;99.90;;;;;;5094523;28;20402;-79
2024/01/16 00:06:07;;;;;;;6.60;1.00;;;1.20;99.90;;;;;;5094884;28;20052;-79
2024/01/16 00:08:33;;;;;;;9.67;1.27;;;1.10;99.90;;;;;;5094994;28;20048;-79
2024/01/16 00:11:01;;;;;;;4.60;0.90;;;1.10;99.90;;;;;;5095118;28;20051;-79
2024/01/16 00:13:27;;;;;;;5.05;0.93;;;1.20;99.90;;;;;;5094853;28;20321;-79
2024/01/16 00:15:52;;;;;;;5.40;0.90;;;1.20;99.90;;;;;;5094869;28;20094;-79
2024/01/16 00:18:18;;;;;;;11.70;1.37;;;1.20;99.90;;;;;;5094576;28;20286;-79
2024/01/16 00:20:44;;;;;;;8.90;1.43;;;1.20;99.90;;;;;;5094859;28;20052;-79
2024/01/16 00:23:10;;;;;;;7.23;1.27;;;1.20;99.90;;;;;;5094521;28;20382;-79
2024/01/16 00:25:36;;;;;;;8.33;1.20;;;1.20;99.90;;;;;;5093683;28;20040;-79
2024/01/16 00:28:02;;;;;;;8.17;1.20;;;1.30;99.90;;;;;;5094682;28;20051;-79
2024/01/16 00:30:29;;;;;;;8.35;1.33;;;1.20;99.90;;;;;;5094884;28;20036;-79
2024/01/16 00:32:55;;;;;;;13.25;1.90;;;1.30;99.90;;;;;;5094602;28;20040;-79
2024/01/16 00:35:21;;;;;;;8.93;1.13;;;1.30;99.90;;;;;;5093962;28;20459;-79
2024/01/16 00:37:46;;;;;;;7.77;1.50;;;1.30;99.90;;;;;;5094461;28;20048;-80
2024/01/16 00:40:12;;;;;;;10.53;2.10;;;1.30;99.90;;;;;;5094094;28;20036;-79
2024/01/16 00:42:38;;;;;;;11.00;1.30;;;1.30;99.90;;;;;;5094332;28;20051;-80
2024/01/16 00:45:04;;;;;;;7.80;1.37;;;1.30;99.90;;;;;;5094457;28;20052;-79
2024/01/16 00:47:30;;;;;;;9.77;1.42;;;1.30;99.90;;;;;;5094259;28;20051;-80
2024/01/16 00:49:55;;;;;;;12.87;1.37;;;1.30;99.90;;;;;;5094218;28;20048;-79
2024/01/16 00:52:21;;;;;;;9.97;1.20;;;1.40;99.90;;;;;;5094016;28;20040;-79
2024/01/16 00:54:47;;;;;;;6.23;1.10;;;1.40;99.90;;;;;;5094060;28;20086;-80
2024/01/16 00:57:15;;;;;;;7.38;1.00;;;1.30;99.90;;;;;;5093877;28;20063;-80
2024/01/16 00:59:41;;;;;;;9.02;1.20;;;1.20;99.90;;;;;;5094091;28;20048;-80
2024/01/16 01:02:09;;;;;;;10.37;1.10;;;1.20;99.90;;;;;;5093778;28;20469;-77
2024/01/16 01:04:35;;;;;;;6.93;1.10;;;1.20;99.90;;;;;;5093919;28;20083;-80
2024/01/16 01:07:01;;;;;;;8.93;1.17;;;1.10;99.90;;;;;;5092751;28;20079;-80
2024/01/16 01:09:26;;;;;;;7.90;2.10;;;1.10;99.90;;;;;;5093711;28;20047;-80
2024/01/16 01:11:52;;;;;;;11.87;1.53;;;1.10;99.90;;;;;;5092694;28;20153;-80
2024/01/16 01:14:18;;;;;;;11.10;1.97;;;1.00;99.90;;;;;;5093669;28;20052;-79
2024/01/16 01:16:43;;;;;;;6.70;1.20;;;0.90;99.90;;;;;;5092889;28;20059;-80
2024/01/16 01:19:09;;;;;;;8.87;1.50;;;0.90;99.90;;;;;;5093589;28;20123;-79
2024/01/16 01:21:35;;;;;;;8.23;1.60;;;0.90;99.90;;;;;;5093828;28;20386;-80
2024/01/16 01:24:01;;;;;;;13.43;2.30;;;0.90;99.90;;;;;;5093606;28;20055;-79
2024/01/16 01:26:27;;;;;;;11.10;1.70;;;0.90;99.90;;;;;;5093440;28;20043;-79
2024/01/16 01:28:52;;;;;;;11.33;1.90;;;0.90;99.90;;;;;;5093824;28;20394;-79
2024/01/16 01:31:18;;;;;;;17.57;2.10;;;1.00;99.90;;;;;;5092110;28;20140;-79
2024/01/16 01:33:44;;;;;;;13.00;1.83;;;0.90;99.90;;;;;;5093639;28;20040;-80
2024/01/16 01:36:10;;;;;;;12.10;1.50;;;1.00;99.90;;;;;;5093510;28;20121;-79
2024/01/16 01:38:35;;;;;;;10.70;1.63;;;1.10;99.90;;;;;;5093771;28;20055;-80
2024/01/16 01:41:01;;;;;;;8.60;1.47;;;1.10;99.90;;;;;;5093403;28;20397;-79
2024/01/16 01:43:27;;;;;;;13.03;1.90;;;1.20;99.90;;;;;;5092010;28;20048;-79
2024/01/16 01:46:17;;;;;;;9.83;1.43;;;1.30;99.90;;;;;;5092370;28;20089;-80
2024/01/16 01:48:45;;;;;;;13.88;2.95;;;1.20;99.90;;;;;;5083641;28;20191;-80
2024/01/16 01:51:12;;;;;;;13.40;3.03;;;1.20;99.90;;;;;;5093351;28;20490;-80
2024/01/16 01:53:39;;;;;;;8.15;2.03;;;1.20;99.90;;;;;;5093238;28;20401;-80
2024/01/16 01:56:09;;;;;;;8.10;1.42;;;1.20;99.90;;;;;;5093379;28;20052;-79
2024/01/16 01:58:37;;;;;;;9.65;1.55;;;1.20;99.90;;;;;;5093036;28;20098;-79
2024/01/16 02:01:05;;;;;;;14.88;1.80;;;1.20;99.90;;;;;;5091919;28;20040;-79
2024/01/16 02:03:41;;;;;;;19.73;3.13;;;1.20;99.90;;;;;;5093003;28;20105;-80
2024/01/16 02:06:07;;;;;;;12.35;3.13;;;1.30;99.90;;;;;;5093343;28;20104;-80
2024/01/16 02:08:33;;;;;;;11.85;2.17;;;1.20;99.90;;;;;;5092934;28;20500;-79
2024/01/16 02:10:59;;;;;;;11.10;2.20;;;1.20;99.90;;;;;;5093329;28;20040;-79
2024/01/16 02:13:24;;;;;;;16.17;2.10;;;1.20;99.90;;;;;;5092921;28;20282;-79
2024/01/16 02:15:50;;;;;;;16.57;2.50;;;1.20;99.90;;;;;;5093059;28;20084;-79
2024/01/16 02:18:17;;;;;;;10.88;1.90;;;1.20;99.90;;;;;;5091999;28;20080;-79
2024/01/16 02:20:44;;;;;;;13.88;2.28;;;1.10;99.90;;;;;;5092977;28;20040;-79
2024/01/16 02:23:12;;;;;;;11.40;1.70;;;1.10;99.90;;;;;;5093112;28;20109;-79
2024/01/16 02:25:39;;;;;;;9.02;1.58;;;0.90;99.90;;;;;;5092778;28;20052;-79
2024/01/16 02:28:04;;;;;;;14.10;2.83;;;1.00;99.90;;;;;;5095366;28;20510;-79
2024/01/16 02:30:30;;;;;;;15.27;1.80;;;1.00;99.90;;;;;;5096729;28;20044;-78
2024/01/16 02:32:56;;;;;;;12.97;1.83;;;1.00;99.90;;;;;;5095676;28;20532;-79
2024/01/16 02:35:22;;;;;;;9.23;1.60;;;0.90;99.90;;;;;;5096597;28;20048;-78
2024/01/16 02:37:48;;;;;;;10.77;1.70;;;0.90;99.90;;;;;;5096877;28;20374;-79
2024/01/16 02:40:13;;;;;;;12.93;2.00;;;1.00;99.90;;;;;;5096723;28;20043;-79
2024/01/16 02:42:39;;;;;;;12.60;2.47;;;0.90;99.90;;;;;;5095280;28;20136;-79
2024/01/16 02:45:06;;;;;;;12.57;1.30;;;0.90;99.90;;;;;;5096595;28;20109;-79
2024/01/16 02:47:32;;;;;;;11.15;1.50;;;0.90;99.90;;;;;;5096403;28;20477;-79
2024/01/16 02:49:59;;;;;;;13.25;2.25;;;0.90;99.90;;;;;;5096523;28;20092;-79
2024/01/16 02:52:25;;;;;;;14.23;1.80;;;0.90;99.90;;;;;;5096277;28;20056;-78
2024/01/16 02:54:51;;;;;;;14.97;1.80;;;0.90;99.90;;;;;;5096071;28;20063;-79
2024/01/16 02:57:17;;;;;;;14.17;2.07;;;0.80;99.90;;;;;;5096383;28;20052;-79
2024/01/16 02:59:46;;;;;;;7.60;1.63;;;0.80;99.90;;;;;;5095806;28;20048;-78
2024/01/16 03:02:13;;;;;;;10.40;1.88;;;0.80;99.90;;;;;;5096312;28;20085;-79
2024/01/16 03:04:39;;;;;;;11.68;1.65;;;0.80;99.90;;;;;;5095859;28;20626;-78
2024/01/16 03:07:05;;;;;;;9.68;1.40;;;0.80;99.90;;;;;;5096251;28;20389;-79
2024/01/16 03:09:31;;;;;;;13.52;2.65;;;0.80;99.90;;;;;;5095953;28;20093;-78
2024/01/16 03:11:57;;;;;;;13.43;1.52;;;0.70;99.90;;;;;;5096374;28;20047;-79
2024/01/16 03:14:23;;;;;;;9.27;1.30;;;0.70;99.90;;;;;;5095012;28;20220;-77
2024/01/16 03:16:49;;;;;;;8.33;1.20;;;0.70;99.90;;;;;;5096096;28;20131;-78
2024/01/16 03:19:15;;;;;;;8.93;1.30;;;0.70;99.90;;;;;;5095901;28;20466;-78
2024/01/16 03:21:41;;;;;;;10.60;1.52;;;0.70;99.90;;;;;;5095636;28;20054;-79
2024/01/16 03:24:07;;;;;;;11.00;1.50;;;0.70;99.90;;;;;;5096235;28;20130;-79
2024/01/16 03:26:33;;;;;;;10.23;1.63;;;0.70;99.90;;;;;;5095630;28;20075;-78
2024/01/16 03:28:59;;;;;;;9.80;1.30;;;0.80;99.90;;;;;;5095768;28;20122;-79
2024/01/16 03:31:25;;;;;;;11.55;1.60;;;0.70;99.90;;;;;;5095609;28;20500;-75
2024/01/16 03:33:50;;;;;;;8.30;1.52;;;0.80;99.90;;;;;;5095719;28;20048;-78
2024/01/16 03:36:16;;;;;;;13.10;1.30;;;0.70;99.90;;;;;;5094514;28;20044;-78
2024/01/16 03:38:43;;;;;;;9.50;2.17;;;0.70;99.90;;;;;;5094476;28;20051;-78
2024/01/16 03:41:11;;;;;;;13.85;1.85;;;0.70;99.90;;;;;;5095493;28;20032;-78
2024/01/16 03:43:37;;;;;;;9.55;1.35;;;0.70;99.90;;;;;;5094172;28;20048;-78
2024/01/16 03:46:03;;;;;;;12.17;2.03;;;0.70;99.90;;;;;;5095694;28;20394;-78
2024/01/16 03:48:29;;;;;;;7.93;1.77;;;0.70;99.90;;;;;;5095312;28;20047;-78
2024/01/16 03:50:55;;;;;;;10.53;1.43;;;0.80;99.90;;;;;;5095413;28;20044;-78
2024/01/16 03:53:22;;;;;;;10.82;1.42;;;0.80;99.90;;;;;;5095424;28;20062;-78
2024/01/16 03:55:49;;;;;;;10.63;1.30;;;0.80;99.90;;;;;;5094745;28;20056;-78
2024/01/16 03:58:15;;;;;;;8.23;1.60;;;0.80;99.90;;;;;;5095435;28;20101;-78
2024/01/16 04:00:41;;;;;;;8.48;1.13;;;0.80;99.90;;;;;;5094910;28;20043;-78
2024/01/16 04:03:07;;;;;;;11.37;1.90;;;0.80;99.90;;;;;;5095138;28;20044;-78
2024/01/16 04:05:33;;;;;;;13.60;1.73;;;0.80;99.90;;;;;;5094872;28;20044;-78
2024/01/16 04:07:59;;;;;;;9.35;2.60;;;0.80;99.90;;;;;;5095051;28;20044;-78
2024/01/16 04:10:25;;;;;;;9.45;1.42;;;0.80;99.90;;;;;;5095170;28;20036;-78
2024/01/16 04:12:51;;;;;;;9.33;1.40;;;0.80;99.90;;;;;;5094755;28;20050;-78
2024/01/16 04:15:17;;;;;;;9.63;1.30;;;0.80;99.90;;;;;;5095046;28;20047;-78
2024/01/16 04:17:42;;;;;;;9.77;1.63;;;0.70;99.90;;;;;;5094677;28;20040;-78
2024/01/16 04:20:09;;;;;;;11.67;1.77;;;0.70;99.90;;;;;;5094699;28;20098;-78
2024/01/16 04:22:35;;;;;;;12.25;1.45;;;0.70;99.90;;;;;;5094257;28;20401;-78
2024/01/16 04:25:01;;;;;;;16.27;1.75;;;0.70;99.90;;;;;;5094699;28;20040;-78
2024/01/16 04:27:27;;;;;;;10.10;1.30;;;0.70;99.90;;;;;;5094653;28;20047;-78
2024/01/16 04:29:53;;;;;;;8.43;1.50;;;0.70;99.90;;;;;;5093482;28;20060;-78
2024/01/16 04:32:19;;;;;;;10.75;1.30;;;0.70;99.90;;;;;;5094662;28;20321;-78
2024/01/16 04:34:45;;;;;;;9.80;1.73;;;0.80;99.90;;;;;;5094361;28;20128;-78
2024/01/16 04:37:10;;;;;;;11.80;1.60;;;0.70;99.90;;;;;;5094897;28;20094;-78
2024/01/16 04:39:36;;;;;;;6.90;1.40;;;0.70;99.90;;;;;;5094203;28;20394;-77
2024/01/16 04:42:02;;;;;;;11.07;1.40;;;0.70;99.90;;;;;;5094434;28;20289;-78
2024/01/16 04:44:28;;;;;;;13.43;1.70;;;0.70;99.90;;;;;;5094456;28;20044;-78
2024/01/16 04:46:54;;;;;;;12.00;2.30;;;0.80;99.90;;;;;;5094130;28;20409;-78
2024/01/16 04:49:19;;;;;;;10.50;2.20;;;0.70;99.90;;;;;;5094249;28;20040;-78
2024/01/16 04:51:45;;;;;;;11.00;2.00;;;0.70;99.90;;;;;;5093917;28;20044;-78
2024/01/16 04:54:12;;;;;;;9.63;1.60;;;0.70;99.90;;;;;;5093844;28;20055;-78
2024/01/16 04:56:37;;;;;;;11.15;2.30;;;0.70;99.90;;;;;;5094041;28;20104;-78
2024/01/16 04:59:03;;;;;;;13.13;1.50;;;0.70;99.90;;;;;;5093972;28;20049;-78
2024/01/16 05:01:29;;;;;;;14.87;2.30;;;0.70;99.90;;;;;;5094111;28;20079;-78
2024/01/16 05:03:55;;;;;;;18.67;2.10;;;0.70;99.90;;;;;;5093723;28;20044;-78
2024/01/16 05:06:21;;;;;;;11.80;1.70;;;0.70;99.90;;;;;;5093913;28;20043;-78
2024/01/16 05:08:47;;;;;;;18.77;2.95;;;0.80;99.90;;;;;;5093752;28;20082;-78
2024/01/16 05:11:12;;;;;;;7.50;1.53;;;0.60;99.90;;;;;;5094209;28;20470;-78
2024/01/16 05:13:38;;;;;;;21.13;2.37;;;0.70;99.90;;;;;;5093689;28;20443;-77
2024/01/16 05:16:04;;;;;;;12.40;1.53;;;0.70;99.90;;;;;;5093727;28;20052;-78
2024/01/16 05:18:30;;;;;;;24.30;2.45;;;0.70;99.90;;;;;;5093759;28;20040;-78
2024/01/16 05:20:58;;;;;;;9.60;2.47;;;0.80;99.90;;;;;;5092208;28;20446;-78
2024/01/16 05:23:24;;;;;;;12.93;2.03;;;0.70;99.90;;;;;;5093687;28;20059;-78
2024/01/16 05:25:49;;;;;;;11.40;1.80;;;0.80;99.90;;;;;;5093455;28;20035;-78
2024/01/16 05:28:15;;;;;;;15.47;2.10;;;0.80;99.90;;;;;;5093882;28;20044;-78
2024/01/16 05:30:41;;;;;;;12.60;1.70;;;0.80;99.90;;;;;;5093506;28;20429;-78
2024/01/16 05:33:08;;;;;;;12.70;1.90;;;0.80;99.90;;;;;;5093510;28;20064;-79
2024/01/16 05:35:34;;;;;;;16.35;2.22;;;0.80;99.90;;;;;;5093609;28;20493;-79
2024/01/16 05:38:00;;;;;;;17.23;2.10;;;0.80;99.90;;;;;;5093240;28;20048;-78
2024/01/16 05:40:26;;;;;;;16.07;2.27;;;0.80;99.90;;;;;;5093411;28;20043;-79
2024/01/16 05:42:51;;;;;;;15.27;2.53;;;0.80;99.90;;;;;;5075426;28;20056;-79
2024/01/16 05:45:18;;;;;;;11.63;1.57;;;0.80;99.90;;;;;;5093438;28;20044;-79
2024/01/16 05:47:43;;;;;;;14.15;1.75;;;0.80;99.90;;;;;;5091989;28;20083;-78
2024/01/16 05:50:09;;;;;;;11.50;2.27;;;0.80;99.90;;;;;;5093576;28;20083;-78
2024/01/16 05:52:35;;;;;;;11.70;1.67;;;0.80;99.90;;;;;;5092306;28;20079;-79
2024/01/16 05:55:02;;;;;;;15.32;2.22;;;0.80;99.90;;;;;;5092774;28;20062;-78
2024/01/16 05:57:31;;;;;;;14.05;1.77;;;0.80;99.90;;;;;;5093273;28;20048;-78
2024/01/16 05:59:57;;;;;;;8.73;1.33;;;0.80;99.90;;;;;;5092958;28;20047;-79
2024/01/16 06:02:23;;;;;;;11.60;2.15;;;0.80;99.90;;;;;;5095071;28;20055;-79
2024/01/16 06:04:49;;;;;;;9.33;1.80;;;0.80;99.90;;;;;;5097362;28;20040;-79
2024/01/16 06:07:14;;;;;;;10.73;2.20;;;0.80;99.90;;;;;;5096556;28;20062;-79
2024/01/16 06:09:40;;;;;;;11.73;2.50;;;0.80;99.90;;;;;;5097307;28;20474;-79
2024/01/16 06:12:07;;;;;;;11.50;3.40;;;0.80;99.90;;;;;;5097142;28;20127;-79
2024/01/16 06:14:33;;;;;;;10.27;3.80;;;0.80;99.90;;;;;;5096007;28;20044;-79
2024/01/16 06:16:59;;;;;;;16.85;4.80;;;0.80;99.90;;;;;;5096962;28;20051;-78
2024/01/16 06:19:24;;;;;;;15.80;6.40;;;0.80;99.90;;;;;;5097109;28;20036;-79
2024/01/16 06:21:50;;;;;;;20.13;15.03;;;0.80;99.90;;;;;;5096945;28;20059;-78
2024/01/16 06:24:16;;;;;;;20.43;12.33;;;0.80;99.90;;;;;;5097080;28;20442;-78
2024/01/16 06:26:42;;;;;;;19.13;6.80;;;0.70;99.90;;;;;;5097198;28;20048;-78
2024/01/16 06:29:08;;;;;;;14.53;5.10;;;0.80;99.90;;;;;;5096792;28;20396;-78
2024/01/16 06:31:34;;;;;;;11.88;4.30;;;0.90;99.90;;;;;;5096797;28;20472;-78
2024/01/16 06:34:00;;;;;;;14.10;3.00;;;0.90;99.90;;;;;;5096708;28;20080;-78
2024/01/16 06:36:25;;;;;;;11.82;2.45;;;0.90;99.90;;;;;;5096799;28;20116;-78
2024/01/16 06:38:51;;;;;;;12.03;2.33;;;0.90;99.90;;;;;;5096538;28;20117;-78
2024/01/16 06:41:17;;;;;;;12.27;1.70;;;1.00;99.90;;;;;;5095498;28;20093;-78
2024/01/16 06:43:42;;;;;;;8.37;2.20;;;0.80;99.90;;;;;;5096672;28;20096;-78
2024/01/16 06:46:08;;;;;;;11.33;2.00;;;0.90;99.90;;;;;;5096348;28;20052;-78
2024/01/16 06:48:38;;;;;;;13.60;1.73;;;0.80;99.90;;;;;;5096704;28;20431;-78
2024/01/16 06:51:04;;;;;;;7.93;1.67;;;0.90;99.90;;;;;;5096345;28;20051;-79
2024/01/16 06:53:30;;;;;;;12.07;1.48;;;0.90;99.90;;;;;;5096560;28;20394;-78
2024/01/16 06:55:56;;;;;;;8.13;1.37;;;0.90;99.90;;;;;;5096419;28;20052;-78
2024/01/16 06:58:21;;;;;;;10.83;1.50;;;0.90;99.90;;;;;;5095484;28;20058;-79
2024/01/16 07:00:48;;;;;;;9.10;1.97;;;0.90;99.90;;;;;;5095114;28;20300;-78
2024/01/16 07:03:13;;;;;;;11.35;1.83;;;0.90;99.90;;;;;;5096109;28;20048;-78
2024/01/16 07:05:43;;;;;;;12.73;2.57;;;0.90;99.90;;;;;;5096282;28;20131;-78
2024/01/16 07:08:09;;;;;;;11.30;2.25;;;0.90;99.90;;;;;;5095930;28;20494;-78
2024/01/16 07:10:35;;;;;;;9.95;1.65;;;0.80;99.90;;;;;;5095905;28;20051;-78
2024/01/16 07:13:02;;;;;;;11.20;1.90;;;0.90;99.90;;;;;;5095102;28;20051;-78
2024/01/16 07:15:28;;;;;;;9.82;1.60;;;0.90;99.90;;;;;;5095499;28;20051;-78
2024/01/16 07:17:53;;;;;;;12.63;2.60;;;0.90;99.90;;;;;;5095597;28;20561;-78
2024/01/16 07:20:20;;;;;;;8.60;1.70;;;0.90;99.90;;;;;;5095921;28;20135;-78
2024/01/16 07:22:46;;;;;;;8.32;1.60;;;0.90;99.90;;;;;;5096115;28;20048;-79
2024/01/16 07:25:11;;;;;;;6.57;1.50;;;0.90;99.90;;;;;;5095735;28;20503;-78
2024/01/16 07:27:37;;;;;;;9.50;1.90;;;0.90;99.90;;;;;;5095776;28;20508;-78
2024/01/16 07:30:07;;;;;;;12.00;2.13;;;0.90;99.90;;;;;;5094559;28;20131;-78
2024/01/16 07:32:33;;;;;;;8.80;1.60;;;0.90;99.90;;;;;;5095770;28;20094;-78
2024/01/16 07:34:59;;;;;;;6.72;1.75;;;0.90;99.90;;;;;;5095531;28;20048;-77
2024/01/16 07:37:25;;;;;;;14.33;3.10;;;0.80;99.90;;;;;;5094474;28;20051;-78
2024/01/16 07:39:50;;;;;;;8.37;1.97;;;0.90;99.90;;;;;;5095491;28;20044;-78
2024/01/16 07:42:16;;;;;;;10.80;1.73;;;0.80;99.90;;;;;;5095322;28;20112;-78
2024/01/16 07:44:42;;;;;;;11.10;1.80;;;0.80;99.90;;;;;;5094458;28;20131;-78
2024/01/16 07:47:08;;;;;;;23.13;8.67;;;0.80;99.90;;;;;;5094064;28;20546;-78
2024/01/16 07:49:34;;;;;;;20.13;10.63;;;0.70;99.90;;;;;;5095392;28;20040;-78
2024/01/16 07:52:00;;;;;;;10.55;3.20;;;0.80;99.90;;;;;;5095151;28;20047;-78
2024/01/16 07:54:26;;;;;;;10.60;2.47;;;0.80;99.90;;;;;;5095359;28;20056;-78
2024/01/16 07:56:51;;;;;;;8.13;1.93;;;0.90;99.90;;;;;;5095238;28;20428;-78
2024/01/16 07:59:17;;;;;;;10.40;2.20;;;0.90;99.90;;;;;;5094934;28;20056;-78
2024/01/16 08:01:43;;;;;;;10.57;1.67;;;0.90;99.90;;;;;;5094280;28;20055;-78
2024/01/16 08:04:09;;;;;;;12.18;1.90;;;1.00;99.90;;;;;;5094942;28;20044;-79
2024/01/16 08:06:35;;;;;;;6.07;1.40;;;1.00;99.90;;;;;;5095047;28;20128;-79
2024/01/16 08:09:01;;;;;;;10.27;1.40;;;1.00;99.90;;;;;;5094798;28;20289;-78
2024/01/16 08:11:27;;;;;;;12.93;2.17;;;1.10;99.90;;;;;;5095022;28;20044;-78
2024/01/16 08:13:52;;;;;;;8.93;1.97;;;1.00;99.90;;;;;;5095104;28;20528;-79
2024/01/16 08:16:18;;;;;;;7.47;1.57;;;1.00;99.90;;;;;;5094755;28;20100;-78
2024/01/16 08:18:44;;;;;;;10.47;1.60;;;1.00;99.90;;;;;;5094911;28;20044;-79
2024/01/16 08:21:09;;;;;;;12.13;1.70;;;1.00;99.90;;;;;;5094273;28;20051;-78
2024/01/16 08:23:35;;;;;;;5.33;1.17;;;1.10;99.90;;;;;;5095082;28;20048;-79
2024/01/16 08:26:01;;;;;;;9.27;1.30;;;1.00;99.90;;;;;;5093172;28;20409;-79
2024/01/16 08:28:27;;;;;;;12.27;1.83;;;1.10;99.90;;;;;;5094603;28;20040;-79
2024/01/16 08:30:53;;;;;;;12.45;1.50;;;1.00;99.90;;;;;;5094658;28;20082;-80
2024/01/16 08:33:19;;;;;;;9.63;1.63;;;1.10;99.90;;;;;;5094156;28;20083;-79
2024/01/16 08:35:44;;;;;;;10.40;1.33;;;1.10;99.90;;;;;;5094218;28;20627;-79
2024/01/16 08:38:10;;;;;;;10.27;1.60;;;1.10;99.90;;;;;;5094228;28;20130;-79
2024/01/16 08:40:36;;;;;;;6.60;1.03;;;1.20;99.90;;;;;;5094337;28;20086;-79
2024/01/16 08:43:03;;;;;;;6.93;1.77;;;1.30;99.90;;;;;;5094401;28;20090;-79
2024/01/16 08:45:29;;;;;;;7.75;1.17;;;1.20;99.90;;;;;;5094367;28;20286;-80
2024/01/16 08:47:55;;;;;;;8.15;1.42;;;1.30;99.90;;;;;;5093494;28;20127;-80
2024/01/16 08:50:21;;;;;;;5.23;1.23;;;1.30;99.90;;;;;;5094074;28;20177;-79
2024/01/16 08:52:46;;;;;;;7.97;1.13;;;1.30;99.90;;;;;;5093885;28;20454;-79
2024/01/16 08:55:12;;;;;;;9.67;1.93;;;1.30;99.90;;;;;;5093958;28;20063;-79
2024/01/16 08:57:38;;;;;;;5.07;1.10;;;1.30;99.90;;;;;;5094103;28;20056;-80
2024/01/16 09:00:08;;;;;;;10.17;1.40;;;1.40;99.90;;;;;;5092819;28;20474;-80
2024/01/16 09:02:35;;;;;;;10.05;1.30;;;1.40;99.90;;;;;;5094363;28;20413;-80
2024/01/16 09:05:01;;;;;;;10.00;1.40;;;1.40;99.90;;;;;;5094109;28;20439;-80
2024/01/16 09:07:27;;;;;;;21.50;7.00;;;1.40;99.90;;;;;;5092425;28;20105;-80
2024/01/16 09:09:53;;;;;;;22.73;6.38;;;1.40;99.90;;;;;;5093909;28;20040;-80
2024/01/16 09:12:19;;;;;;;11.52;3.88;;;1.40;99.90;;;;;;5093679;28;20044;-79
2024/01/16 09:14:45;;;;;;;14.87;5.43;;;1.40;99.90;;;;;;5092598;28;20375;-80
2024/01/16 09:17:10;;;;;;;9.30;3.53;;;1.40;99.90;;;;;;5093618;28;20040;-79
2024/01/16 09:19:36;;;;;;;13.57;4.03;;;1.50;99.90;;;;;;5093648;28;20075;-79
2024/01/16 09:22:03;;;;;;;18.97;6.23;;;1.50;99.90;;;;;;5093821;28;20526;-80
2024/01/16 09:24:28;;;;;;;8.38;2.17;;;1.50;99.90;;;;;;5093442;28;20054;-79
2024/01/16 09:26:54;;;;;;;6.47;1.70;;;1.50;99.90;;;;;;5093828;28;20044;-79
2024/01/16 09:29:21;;;;;;;9.40;2.50;;;1.40;99.90;;;;;;5093157;28;20051;-79
2024/01/16 09:31:47;;;;;;;6.00;1.80;;;1.60;99.90;;;;;;5093599;28;20413;-79
2024/01/16 09:34:13;;;;;;;7.43;1.80;;;1.60;99.90;;;;;;5093048;28;20044;-79
2024/01/16 09:36:40;;;;;;;7.85;1.88;;;1.60;99.90;;;;;;5093030;28;20394;-79
2024/01/16 09:39:10;;;;;;;5.05;1.90;;;1.70;99.90;;;;;;5093387;28;20044;-80
2024/01/16 09:41:41;;;;;;;8.73;4.63;;;1.70;99.90;;;;;;5093778;28;20059;-80
2024/01/16 09:44:07;;;;;;;10.10;3.22;;;1.80;99.90;;;;;;5093654;28;20036;-80
2024/01/16 09:46:37;;;;;;;9.15;2.30;;;1.90;99.90;;;;;;5093219;28;20048;-80
2024/01/16 09:49:03;;;;;;;13.43;5.00;;;1.90;99.90;;;;;;5093463;28;20055;-80
2024/01/16 09:51:29;;;;;;;13.10;3.93;;;1.90;99.90;;;;;;5093190;28;20040;-79
2024/01/16 09:53:54;;;;;;;8.20;2.33;;;2.10;99.90;;;;;;5093255;28;20124;-78
2024/01/16 09:56:24;;;;;;;7.73;1.83;;;2.10;99.90;;;;;;5093144;28;20286;-78
2024/01/16 09:58:58;;;;;;;6.63;1.50;;;2.20;99.90;;;;;;5092388;28;20089;-79
2024/01/16 10:01:27;;;;;;;8.85;1.20;;;2.20;99.90;;;;;;5093074;28;20044;-79
2024/01/16 10:03:53;;;;;;;5.07;1.23;;;2.20;99.90;;;;;;5093274;28;20397;-78
2024/01/16 10:06:20;;;;;;;6.90;1.30;;;2.30;99.90;;;;;;5093045;28;20054;-78
2024/01/16 10:08:46;;;;;;;10.00;1.60;;;2.20;99.90;;;;;;5093223;28;20052;-78
2024/01/16 10:11:12;;;;;;;7.43;1.60;;;2.20;99.90;;;;;;5093235;28;20039;-78
2024/01/16 10:13:38;;;;;;;7.23;1.43;;;2.20;99.90;;;;;;5092956;28;20105;-78
2024/01/16 10:16:04;;;;;;;9.98;3.50;;;2.10;99.90;;;;;;5093119;28;20052;-78
2024/01/16 10:18:30;;;;;;;17.63;5.77;;;2.10;99.90;;;;;;5092882;28;20099;-78
2024/01/16 10:20:56;;;;;;;10.20;2.63;;;2.10;99.90;;;;;;5092976;28;20040;-78
2024/01/16 10:23:26;;;;;;;8.07;2.33;;;2.00;99.90;;;;;;5092916;28;20389;-78
2024/01/16 10:26:07;;;;;;;7.95;2.15;;;2.00;99.90;;;;;;5092087;28;20048;-78
2024/01/16 10:28:34;;;;;;;8.70;2.05;;;2.00;99.90;;;;;;5092807;28;20401;-77
2024/01/16 10:31:08;;;;;;;7.97;2.47;;;2.00;99.90;;;;;;5093066;28;20044;-77
2024/01/16 10:33:33;;;;;;;9.07;2.22;;;2.00;99.90;;;;;;5092826;28;20052;-78
2024/01/16 10:36:13;;;;;;;5.73;2.10;;;2.00;99.90;;;;;;5091823;28;20051;-76
2024/01/16 10:38:40;;;;;;;7.72;2.15;;;2.00;99.90;;;;;;5092772;28;20048;-78
2024/01/16 10:41:18;;;;;;;7.78;2.38;;;1.80;99.90;;;;;;5092924;28;20067;-79
2024/01/16 10:43:44;;;;;;;6.53;2.13;;;1.80;99.90;;;;;;5092845;28;20506;-79
2024/01/16 10:46:15;;;;;;;6.65;2.72;;;1.70;99.90;;;;;;5092859;28;20048;-79
2024/01/16 10:49:00;;;;;;;8.60;2.35;;;1.70;99.90;;;;;;5094541;28;20055;-79
2024/01/16 10:51:28;;;;;;;8.15;2.03;;;1.60;99.90;;;;;;5096407;28;20096;-79
2024/01/16 10:54:05;;;;;;;8.23;2.35;;;1.60;99.90;;;;;;5096298;28;20059;-78
2024/01/16 10:56:32;;;;;;;9.20;2.35;;;1.60;99.90;;;;;;5096379;28;20089;-78
2024/01/16 10:59:27;;;;;;;8.50;3.00;;;1.60;99.90;;;;;;5096406;28;20040;-79
2024/01/16 11:01:58;;;;;;;9.77;3.72;;;1.70;99.90;;;;;;5095679;28;20416;-78
2024/01/16 11:04:24;;;;;;;8.48;2.50;;;1.70;99.90;;;;;;5096175;28;20139;-78
2024/01/16 11:06:54;;;;;;;8.05;3.00;;;1.60;99.90;;;;;;5096299;28;20036;-78
2024/01/16 11:09:21;;;;;;;13.85;4.28;;;1.70;99.90;;;;;;5096247;28;20047;-78
2024/01/16 11:11:49;;;;;;;7.05;2.92;;;1.80;99.90;;;;;;5096328;28;20413;-78
2024/01/16 11:14:16;;;;;;;14.57;7.70;;;1.80;99.90;;;;;;5095859;28;20581;-78
2024/01/16 11:16:43;;;;;;;13.48;8.07;;;1.80;99.90;;;;;;5094923;28;20558;-78
2024/01/16 11:19:09;;;;;;;7.15;2.50;;;1.90;99.90;;;;;;5095992;28;20051;-78
2024/01/16 11:21:37;;;;;;;12.10;3.72;;;1.90;99.90;;;;;;5095803;28;20044;-78
2024/01/16 11:24:03;;;;;;;7.93;2.60;;;1.90;99.90;;;;;;5095998;28;20044;-78
2024/01/16 11:26:40;;;;;;;8.00;3.60;;;1.90;99.90;;;;;;5095870;28;20112;-78
2024/01/16 11:29:27;;;;;;;9.30;3.10;;;2.00;99.90;;;;;;5095998;28;20046;-79
2024/01/16 11:31:58;;;;;;;8.15;3.00;;;1.90;99.90;;;;;;5095827;28;20048;-80
2024/01/16 11:34:42;;;;;;;5.72;2.20;;;2.00;99.90;;;;;;5095770;28;20066;-79
2024/01/16 11:37:09;;;;;;;9.02;2.20;;;1.90;99.90;;;;;;5095692;28;20101;-80
2024/01/16 11:39:35;;;;;;;9.95;2.63;;;1.90;99.90;;;;;;5095334;28;20083;-81
2024/01/16 11:42:04;;;;;;;15.35;3.30;;;2.00;99.90;;;;;;5094771;28;20089;-81
2024/01/16 11:44:46;;;;;;;10.80;3.25;;;2.00;99.90;;;;;;5095464;28;20393;-81
2024/01/16 11:47:25;;;;;;;11.77;2.70;;;2.00;99.90;;;;;;5094835;28;20105;-83
2024/01/16 11:50:12;;;;;;;13.25;3.25;;;2.10;99.90;;;;;;5095505;28;20044;-83
2024/01/16 11:52:42;;;;;;;16.52;5.00;;;2.20;99.90;;;;;;5094170;28;20056;-83
2024/01/16 11:55:31;;;;;;;12.52;4.70;;;2.20;99.90;;;;;;5094976;28;20060;-83
2024/01/16 11:58:24;;;;;;;14.60;2.92;;;2.20;99.90;;;;;;5095617;28;20105;-83
2024/01/16 12:00:53;;;;;;;11.60;2.40;;;2.20;99.90;;;;;;5093863;28;20493;-82
2024/01/16 12:03:21;;;;;;;8.00;3.05;;;2.10;99.90;;;;;;5095535;28;20109;-82
2024/01/16 12:05:56;;;;;;;11.02;2.90;;;2.20;99.90;;;;;;5095013;28;20117;-82
2024/01/16 12:08:22;;;;;;;11.00;2.90;;;2.10;99.90;;;;;;5095250;28;20040;-82
2024/01/16 12:10:48;;;;;;;17.38;3.17;;;2.10;99.90;;;;;;5094931;28;20065;-80
2024/01/16 12:13:15;;;;;;;15.02;5.05;;;2.10;99.90;;;;;;5094227;28;20540;-81
2024/01/16 12:15:41;;;;;;;14.75;3.85;;;2.00;99.90;;;;;;5094829;28;20039;-80
2024/01/16 12:18:08;;;;;;;16.90;4.03;;;2.00;99.90;;;;;;5094985;28;20052;-80
2024/01/16 12:20:37;;;;;;;16.88;3.95;;;1.90;99.90;;;;;;5094616;28;20127;-80
2024/01/16 12:23:05;;;;;;;14.48;4.80;;;2.00;99.90;;;;;;5095029;28;20081;-80
2024/01/16 12:25:35;;;;;;;15.07;4.80;;;1.90;99.90;;;;;;5094528;28;20123;-79
2024/01/16 12:28:03;;;;;;;15.48;4.20;;;2.00;99.90;;;;;;5094758;28;20036;-80
2024/01/16 12:30:33;;;;;;;18.13;4.60;;;2.00;99.90;;;;;;5094705;28;20098;-80
2024/01/16 12:33:09;;;;;;;12.40;4.32;;;2.00;99.90;;;;;;5094683;28;20087;-80
2024/01/16 12:35:45;;;;;;;15.93;4.70;;;2.00;99.90;;;;;;5094366;28;20074;-80
2024/01/16 12:38:12;;;;;;;14.70;5.10;;;2.00;99.90;;;;;;5093957;28;20393;-81
2024/01/16 12:40:47;;;;;;;14.90;4.60;;;2.00;99.90;;;;;;5094296;28;20040;-80
2024/01/16 12:43:13;;;;;;;13.77;4.63;;;2.00;99.90;;;;;;5093450;28;20148;-81
2024/01/16 12:45:39;;;;;;;13.13;4.73;;;2.10;99.90;;;;;;5094219;28;20075;-80
2024/01/16 12:48:05;;;;;;;17.85;4.43;;;2.00;99.90;;;;;;5094356;28;20048;-81
2024/01/16 12:50:32;;;;;;;12.40;3.90;;;2.00;99.90;;;;;;5094251;28;20177;-81